Airport ID:KTSP
Update Time (UTC):13 JUL 20 16:23
Wind Speed (Knots):8
Wind Direction (Magnetic):290
Temperature (°C):29
Dew Point (°C):6
Humidity (%):23
Altimeter (inHg):30.06
Density Altitude (Feet):6400
Visibility (Miles):9
Clouds (Hundreds of feet):CLR
Present Weather:NO PRECIPITATION
METAR:METAR KTSP 131620Z AUTO 32010KT 9SM CLR 29/06 A3006 RMK AO2

The data displayed is for advisory purposes only and is not to be used for flight planning or operations.